Aérodrome :
LOGIN :

S'inscrire | Disclaimer

   EN    FR    IT 

 










Légende :    VFR   VFR Marginal   IFR   IFR Intensif   IFR Très Intensif
Visi : 
Plafond : 
>= 8 km
>= 3000ft
5 à 8 km
1000 à 3000 ft
1500m à 5 km
500 à 1000 ft
800 à 1500m
200 à 500 ft
< 800m
< 200 ft
Symboles :   Orages  Brouillard  Fortes neiges  Fortes précipitations  Vent > 20 kt
SIGMETs :   Divers  Orages  Givrage  Turbulence  Onde Orograph.  Cendres Volcan.







- Altitude de l'aérodrome : 39 ft
- Code IATA : ANR


EBAW - Anvers / Antwerpen Deurne

DERNIER METAR :
  • 220120Z AUTO 29005KT 1900 BR OVC002/// 07/07 Q1033

METARs EXPIRÉS :
  • 220050Z AUTO 29003KT 270V340 2300 BR OVC004/// 08/07 Q1032
  • 220020Z AUTO 27004KT 2700 BR OVC006/// 08/07 Q1032
  • 212350Z AUTO 29004KT 2700 BR VV004 08/07 Q1032
  • 212320Z AUTO 29005KT 3000 BR BKN003/// 08/07 Q1032
  • 212250Z AUTO 31005KT 4000 BR VV004 08/07 Q1032

TAF TAF EBAW
Valide du 22 à 00h jusqu'au 22 à 09h UTC


212300Z 2200/2209 28004KT 6000 BKN006
TEMPO 2200/2209 3500 BR BKN004
PROB40
TEMPO 2201/2209 0200 FG BKN001
Pas de NOTAMs connus pour ce terrain.



MET'MAP, la Météo Aéronautique d'un coup d'oeil ! - Copyright ORBIFLY Décembre 2007 - Disclaimer

ORBIFLY MET'MAP TEAM :

Programmation & Développement : Alexandra Zaïnal
Conception & Développement : Baudouin d'Aumeries
Co-Programmation & Développement : Marc-Olivier Méhu
Soutien technique & logistique : Manuel Goepfert

Contact : metmap@orbifly.com




SOURCES & CREDITS :

   NOAA